createdAt,value
2022-10-11T00:01:17.882Z,66.60
2022-10-11T00:03:44.859Z,66.50
2022-10-11T00:06:11.791Z,66.60
2022-10-11T00:08:38.692Z,66.60
2022-10-11T00:11:10.315Z,66.50
2022-10-11T00:13:39.583Z,66.60
2022-10-11T00:16:11.755Z,66.60
2022-10-11T00:18:39.305Z,66.60
2022-10-11T00:21:10.289Z,66.60
2022-10-11T00:23:40.070Z,67.40
2022-10-11T00:26:09.798Z,66.50
2022-10-11T00:28:37.960Z,66.50
2022-10-11T00:31:11.295Z,66.40
2022-10-11T00:33:40.794Z,66.30
2022-10-11T00:36:09.692Z,66.30
2022-10-11T00:38:41.621Z,66.30
2022-10-11T00:41:11.336Z,66.30
2022-10-11T00:43:41.389Z,66.20
2022-10-11T00:46:27.959Z,66.10
2022-10-11T00:49:05.179Z,66.20
2022-10-11T00:51:42.867Z,66.30
2022-10-11T00:54:14.226Z,66.20
2022-10-11T00:56:44.359Z,66.30
2022-10-11T00:59:17.840Z,66.40
2022-10-11T01:01:45.016Z,66.30
2022-10-11T01:04:12.022Z,66.30
2022-10-11T01:06:39.935Z,66.30
2022-10-11T01:09:07.405Z,66.40
2022-10-11T01:11:38.343Z,66.30
2022-10-11T01:14:52.418Z,66.30
2022-10-11T01:17:41.408Z,66.60
2022-10-11T01:20:54.812Z,66.60
2022-10-11T01:23:50.125Z,66.80
2022-10-11T01:27:18.717Z,66.80
2022-10-11T01:29:54.877Z,67.10
2022-10-11T01:32:34.350Z,67.00
2022-10-11T01:35:19.275Z,66.90
2022-10-11T01:38:03.601Z,66.90
2022-10-11T01:40:47.154Z,67.10
2022-10-11T01:43:17.235Z,67.20
2022-10-11T01:45:45.956Z,67.10
2022-10-11T01:48:13.917Z,67.00
2022-10-11T01:50:48.183Z,67.00
2022-10-11T01:53:55.026Z,67.10
2022-10-11T01:57:14.700Z,67.10
2022-10-11T01:59:44.633Z,67.20
2022-10-11T02:02:48.029Z,67.10
2022-10-11T02:05:20.014Z,67.20
2022-10-11T02:08:09.569Z,67.10
2022-10-11T02:10:59.331Z,67.10
2022-10-11T02:13:39.392Z,67.10
2022-10-11T02:16:12.791Z,67.00
2022-10-11T02:18:48.014Z,66.80
2022-10-11T02:21:19.934Z,66.70
2022-10-11T02:24:06.168Z,66.60
2022-10-11T02:26:34.767Z,66.50
2022-10-11T02:29:09.777Z,66.40
2022-10-11T02:31:39.697Z,66.30
2022-10-11T02:34:22.330Z,66.30
2022-10-11T02:37:12.293Z,66.40
2022-10-11T02:39:57.381Z,66.40
2022-10-11T02:42:32.776Z,66.40
2022-10-11T02:45:10.205Z,66.40
2022-10-11T02:47:40.265Z,66.30
2022-10-11T02:50:12.134Z,66.30
2022-10-11T02:52:39.030Z,66.40
2022-10-11T02:55:07.017Z,66.40
2022-10-11T02:57:33.997Z,66.40
2022-10-11T03:00:00.997Z,66.40
2022-10-11T03:02:27.882Z,66.50
2022-10-11T03:04:54.776Z,66.60
2022-10-11T03:07:23.906Z,66.70
2022-10-11T03:09:50.860Z,66.90
2022-10-11T03:12:17.751Z,66.90
2022-10-11T03:14:48.674Z,67.00
2022-10-11T03:17:35.099Z,67.10
2022-10-11T03:20:02.676Z,67.10
2022-10-11T03:22:29.578Z,67.20
2022-10-11T03:24:59.766Z,67.10
2022-10-11T03:27:30.506Z,67.10
2022-10-11T03:29:57.785Z,67.10
2022-10-11T03:32:24.807Z,67.10
2022-10-11T03:34:51.659Z,67.20
2022-10-11T03:37:23.586Z,67.20
2022-10-11T03:39:52.933Z,67.20
2022-10-11T03:42:22.135Z,67.20
2022-10-11T03:44:52.051Z,67.20
2022-10-11T03:47:19.309Z,67.30
2022-10-11T03:49:47.536Z,67.40
2022-10-11T03:52:16.966Z,67.40
2022-10-11T03:54:46.811Z,67.50
2022-10-11T03:57:16.169Z,67.50
2022-10-11T03:59:45.534Z,67.50
2022-10-11T04:02:12.481Z,67.40
2022-10-11T04:04:42.416Z,67.40
2022-10-11T04:07:09.722Z,67.40
2022-10-11T04:09:37.885Z,67.40
2022-10-11T04:12:10.346Z,67.40
2022-10-11T04:14:40.524Z,67.20
2022-10-11T04:17:12.421Z,67.40
2022-10-11T04:19:39.300Z,67.40
2022-10-11T04:22:07.766Z,67.30
2022-10-11T04:24:34.804Z,67.30
2022-10-11T04:27:04.224Z,67.30
2022-10-11T04:29:32.712Z,67.40
2022-10-11T04:32:00.083Z,67.30
2022-10-11T04:34:27.030Z,67.40
2022-10-11T04:36:56.120Z,67.40
2022-10-11T04:39:25.558Z,67.30
2022-10-11T04:41:55.878Z,67.30
2022-10-11T04:44:22.851Z,67.30
2022-10-11T04:47:07.718Z,67.30
2022-10-11T04:49:48.770Z,67.40
2022-10-11T04:52:16.040Z,67.30
2022-10-11T04:54:46.635Z,67.30
2022-10-11T04:57:13.674Z,67.40
2022-10-11T04:59:40.963Z,67.40
2022-10-11T05:02:08.110Z,67.40
2022-10-11T05:04:37.817Z,67.50
2022-10-11T05:07:06.535Z,67.50
2022-10-11T05:09:33.695Z,67.60
2022-10-11T05:12:03.648Z,67.60
2022-10-11T05:14:33.167Z,67.70
2022-10-11T05:17:00.285Z,67.70
2022-10-11T05:19:27.433Z,67.70
2022-10-11T05:21:57.852Z,67.70
2022-10-11T05:24:29.514Z,67.70
2022-10-11T05:27:03.184Z,67.70
2022-10-11T05:29:35.683Z,67.70
2022-10-11T05:32:48.920Z,67.70
2022-10-11T05:35:16.072Z,67.80
2022-10-11T05:38:01.546Z,67.80
2022-10-11T05:46:39.620Z,67.80
2022-10-11T05:49:09.175Z,67.80
2022-10-11T05:51:37.526Z,67.80
2022-10-11T05:54:09.346Z,67.80
2022-10-11T05:56:36.281Z,67.80
2022-10-11T05:59:05.030Z,67.80
2022-10-11T06:01:32.252Z,67.80
2022-10-11T06:04:01.937Z,67.80
2022-10-11T06:06:28.928Z,67.80
2022-10-11T06:08:58.400Z,67.80
2022-10-11T06:11:27.653Z,67.80
2022-10-11T06:13:58.754Z,67.70
2022-10-11T06:16:25.944Z,67.70
2022-10-11T06:18:54.703Z,67.70
2022-10-11T06:21:22.929Z,68.10
2022-10-11T06:23:51.338Z,67.80
2022-10-11T06:26:19.491Z,67.80
2022-10-11T06:28:46.814Z,67.80
2022-10-11T06:31:14.441Z,67.80
2022-10-11T06:33:41.458Z,67.80
2022-10-11T06:36:16.943Z,67.90
2022-10-11T06:38:46.609Z,67.90
2022-10-11T06:41:26.933Z,67.90
2022-10-11T06:43:54.448Z,67.80
2022-10-11T06:46:27.422Z,67.90
2022-10-11T06:48:59.021Z,68.00
2022-10-11T06:51:30.106Z,68.00
2022-10-11T06:53:59.694Z,68.20
2022-10-11T06:56:30.406Z,68.00
2022-10-11T06:59:03.679Z,68.00
2022-10-11T07:01:30.858Z,68.00
2022-10-11T07:04:01.391Z,68.00
2022-10-11T07:06:30.571Z,68.00
2022-10-11T07:09:00.795Z,68.00
2022-10-11T07:11:28.765Z,68.10
2022-10-11T07:14:07.826Z,68.10
2022-10-11T07:16:38.296Z,68.20
2022-10-11T07:19:07.799Z,68.20
2022-10-11T07:21:37.408Z,68.20
2022-10-11T07:24:04.809Z,68.20
2022-10-11T07:26:38.785Z,68.20
2022-10-11T07:29:11.843Z,68.20
2022-10-11T07:31:42.445Z,68.30
2022-10-11T07:34:10.551Z,68.30
2022-10-11T07:36:40.250Z,68.20
2022-10-11T07:39:08.886Z,68.20
2022-10-11T07:41:44.653Z,68.10
2022-10-11T07:44:13.270Z,68.20
2022-10-11T07:46:40.323Z,68.20
2022-10-11T07:49:07.325Z,68.20
2022-10-11T07:51:34.593Z,68.30
2022-10-11T07:54:07.004Z,68.30
2022-10-11T07:56:37.593Z,68.20
2022-10-11T07:59:05.207Z,68.20
2022-10-11T08:01:33.651Z,68.20
2022-10-11T08:04:00.930Z,68.20
2022-10-11T08:06:32.633Z,68.20
2022-10-11T08:09:01.527Z,68.10
2022-10-11T08:11:38.443Z,68.10
2022-10-11T08:14:09.191Z,68.30
2022-10-11T08:16:40.881Z,68.10
2022-10-11T08:19:07.970Z,68.10
2022-10-11T08:21:35.060Z,68.10
2022-10-11T08:24:05.739Z,68.10
2022-10-11T08:26:34.118Z,68.10
2022-10-11T08:29:03.585Z,68.00
2022-10-11T08:31:32.879Z,68.00
2022-10-11T08:33:59.902Z,67.90
2022-10-11T08:36:27.011Z,68.00
2022-10-11T08:38:53.972Z,67.90
2022-10-11T08:41:43.275Z,67.90
2022-10-11T08:45:09.580Z,68.00
2022-10-11T08:47:43.216Z,68.00
2022-10-11T08:50:20.895Z,68.00
2022-10-11T08:53:05.108Z,67.90
2022-10-11T08:55:45.201Z,68.00
2022-10-11T08:58:17.668Z,67.90
2022-10-11T09:00:55.410Z,67.80
2022-10-11T09:03:40.426Z,68.00
2022-10-11T09:06:23.821Z,68.10
2022-10-11T09:09:01.722Z,68.20
2022-10-11T09:12:16.850Z,68.30
2022-10-11T09:15:20.866Z,68.50
2022-10-11T09:17:59.926Z,68.70
2022-10-11T09:20:40.449Z,68.60
2022-10-11T09:23:34.658Z,68.80
2022-10-11T09:26:23.082Z,69.00
2022-10-11T09:29:01.320Z,68.90
2022-10-11T09:31:29.892Z,68.90
2022-10-11T09:34:06.265Z,68.80
2022-10-11T09:37:18.327Z,68.70
2022-10-11T09:40:01.439Z,68.60
2022-10-11T09:42:28.532Z,68.70
2022-10-11T09:44:57.463Z,68.40
2022-10-11T09:47:33.248Z,68.40
2022-10-11T09:50:12.656Z,68.10
2022-10-11T09:53:02.196Z,68.10
2022-10-11T09:55:50.362Z,68.00
2022-10-11T09:58:31.910Z,67.70
2022-10-11T10:01:07.871Z,67.60
2022-10-11T10:03:42.057Z,67.70
2022-10-11T10:06:28.860Z,67.50
2022-10-11T10:09:26.735Z,67.40
2022-10-11T10:11:55.521Z,67.40
2022-10-11T10:14:30.677Z,67.20
2022-10-11T10:17:06.497Z,66.70
2022-10-11T10:19:48.458Z,66.50
2022-10-11T10:22:22.738Z,66.20
2022-10-11T10:24:53.818Z,66.20
2022-10-11T10:27:28.302Z,66.00
2022-10-11T10:30:13.203Z,65.90
2022-10-11T10:33:04.831Z,65.30
2022-10-11T10:35:33.329Z,65.30
2022-10-11T10:38:49.877Z,65.60
2022-10-11T10:41:19.752Z,65.40
2022-10-11T10:43:55.401Z,65.30
2022-10-11T10:46:47.158Z,64.70
2022-10-11T10:49:48.861Z,64.50
2022-10-11T10:53:03.260Z,64.30
2022-10-11T10:55:45.154Z,63.60
2022-10-11T10:58:21.524Z,63.70
2022-10-11T11:01:06.238Z,63.00
2022-10-11T11:03:42.567Z,62.90
2022-10-11T11:06:26.493Z,62.50
2022-10-11T11:09:14.732Z,62.40
2022-10-11T11:12:34.584Z,62.10
2022-10-11T11:15:35.553Z,61.30
2022-10-11T11:18:07.669Z,61.50
2022-10-11T11:20:56.201Z,61.00
2022-10-11T11:23:33.006Z,60.40
2022-10-11T11:26:37.122Z,60.20
2022-10-11T11:29:29.065Z,59.90
2022-10-11T11:32:11.006Z,59.60
2022-10-11T11:34:47.988Z,59.20
2022-10-11T11:37:25.681Z,59.30
2022-10-11T11:39:58.229Z,59.30
2022-10-11T11:42:42.370Z,59.20
2022-10-11T11:45:24.560Z,58.70
2022-10-11T11:48:10.518Z,58.40
2022-10-11T11:50:46.033Z,58.70
2022-10-11T11:53:25.327Z,58.80
2022-10-11T11:56:07.926Z,58.50
2022-10-11T11:58:46.649Z,58.70
2022-10-11T12:01:47.384Z,58.50
2022-10-11T12:04:35.352Z,58.50
2022-10-11T12:07:16.786Z,59.00
2022-10-11T12:09:52.136Z,59.00
2022-10-11T12:12:34.183Z,59.30
2022-10-11T12:15:10.174Z,59.40
2022-10-11T12:17:59.190Z,59.50
2022-10-11T12:20:41.814Z,59.70
2022-10-11T12:23:52.119Z,59.70
2022-10-11T12:26:36.265Z,59.80
2022-10-11T12:29:25.916Z,59.90
2022-10-11T12:32:01.493Z,60.00
2022-10-11T12:37:25.096Z,60.20
2022-10-11T12:39:59.765Z,60.40
2022-10-11T12:43:23.926Z,60.40
2022-10-11T12:45:53.437Z,60.30
2022-10-11T12:48:41.730Z,60.50
2022-10-11T12:51:17.573Z,60.40
2022-10-11T12:54:29.112Z,60.60
2022-10-11T12:57:11.892Z,60.60
2022-10-11T12:59:44.983Z,60.60
2022-10-11T13:02:42.699Z,60.60
2022-10-11T13:05:31.592Z,60.60
2022-10-11T13:08:05.627Z,60.60
2022-10-11T13:10:43.920Z,60.80
2022-10-11T13:13:53.607Z,60.90
2022-10-11T13:16:28.648Z,60.80
2022-10-11T13:19:03.897Z,60.80
2022-10-11T13:21:36.686Z,61.50
2022-10-11T13:24:17.521Z,60.80
2022-10-11T13:26:51.699Z,60.90
2022-10-11T13:29:19.823Z,60.80
2022-10-11T13:31:48.400Z,60.70
2022-10-11T13:34:18.621Z,60.70
2022-10-11T13:36:47.994Z,60.70
2022-10-11T13:39:31.772Z,60.70
2022-10-11T13:42:01.441Z,61.30
2022-10-11T13:44:28.510Z,60.60
2022-10-11T13:46:55.463Z,60.60
2022-10-11T13:49:47.637Z,60.50
2022-10-11T13:52:24.887Z,60.50
2022-10-11T13:55:23.630Z,60.40
2022-10-11T13:57:55.919Z,60.40
2022-10-11T14:00:35.514Z,60.40
2022-10-11T14:03:16.423Z,60.20
2022-10-11T14:05:56.107Z,60.40
2022-10-11T14:08:38.846Z,61.40
2022-10-11T14:11:09.747Z,60.40
2022-10-11T14:13:44.586Z,60.20
2022-10-11T14:16:13.777Z,60.20
2022-10-11T14:18:48.787Z,60.30
2022-10-11T14:21:45.911Z,60.20
2022-10-11T14:24:17.815Z,59.80
2022-10-11T14:26:48.824Z,60.10
2022-10-11T14:29:33.971Z,60.10
2022-10-11T14:32:30.705Z,60.00
2022-10-11T14:34:58.267Z,60.00
2022-10-11T14:37:25.573Z,60.00
2022-10-11T14:39:55.200Z,60.00
2022-10-11T14:42:25.033Z,60.00
2022-10-11T14:44:52.212Z,60.00
2022-10-11T14:47:19.139Z,60.00
2022-10-11T14:49:45.982Z,60.00
2022-10-11T14:52:14.358Z,60.00
2022-10-11T14:54:41.542Z,60.00
2022-10-11T14:57:11.929Z,60.10
2022-10-11T14:59:39.130Z,60.10
2022-10-11T15:02:08.844Z,60.30
2022-10-11T15:04:38.280Z,60.30
2022-10-11T15:07:05.414Z,60.20
2022-10-11T15:09:32.546Z,60.40
2022-10-11T15:12:04.210Z,60.30
2022-10-11T15:14:34.102Z,60.50
2022-10-11T15:17:03.126Z,60.60
2022-10-11T15:19:30.026Z,60.60
2022-10-11T15:21:56.948Z,60.60
2022-10-11T15:24:23.920Z,60.70
2022-10-11T15:26:50.831Z,60.70
2022-10-11T15:29:24.209Z,60.70
2022-10-11T15:31:53.186Z,60.70
2022-10-11T15:34:20.106Z,60.60
2022-10-11T15:36:47.073Z,60.70
2022-10-11T15:39:33.650Z,60.80
2022-10-11T15:42:00.588Z,60.90
2022-10-11T15:44:29.894Z,60.90
2022-10-11T15:46:56.745Z,60.90
2022-10-11T15:49:23.610Z,60.90
2022-10-11T15:51:50.520Z,60.90
2022-10-11T15:54:17.372Z,60.60
2022-10-11T15:56:44.291Z,60.70
2022-10-11T15:59:11.757Z,60.70
2022-10-11T16:01:41.725Z,60.50
2022-10-11T16:04:09.462Z,60.50
2022-10-11T16:06:38.651Z,60.60
2022-10-11T16:09:05.742Z,60.60
2022-10-11T16:11:35.106Z,60.50
2022-10-11T16:14:04.518Z,60.50
2022-10-11T16:16:31.371Z,60.50
2022-10-11T16:18:58.180Z,60.50
2022-10-11T16:21:27.467Z,60.60
2022-10-11T16:23:56.401Z,60.50
2022-10-11T16:26:25.338Z,60.60
2022-10-11T16:28:56.580Z,60.70
2022-10-11T16:31:23.830Z,60.70
2022-10-11T16:33:52.835Z,60.70
2022-10-11T16:36:31.946Z,60.90
2022-10-11T16:39:16.898Z,61.10
2022-10-11T16:41:44.416Z,61.30
2022-10-11T16:44:18.245Z,62.30
2022-10-11T16:46:49.077Z,61.60
2022-10-11T16:49:22.511Z,61.70
2022-10-11T16:51:51.930Z,61.70
2022-10-11T16:54:20.816Z,61.80
2022-10-11T16:56:49.838Z,61.80
2022-10-11T16:59:17.456Z,61.90
2022-10-11T17:01:47.155Z,62.10
2022-10-11T17:04:14.179Z,61.90
2022-10-11T17:06:43.809Z,61.90
2022-10-11T17:09:10.949Z,61.70
2022-10-11T17:11:40.645Z,61.60
2022-10-11T17:14:07.691Z,61.60
2022-10-11T17:16:37.768Z,61.40
2022-10-11T17:19:05.123Z,61.40
2022-10-11T17:21:32.054Z,61.30
2022-10-11T17:23:59.089Z,61.20
2022-10-11T17:26:29.526Z,61.20
2022-10-11T17:29:00.868Z,61.20
2022-10-11T17:31:29.646Z,61.20
2022-10-11T17:33:59.784Z,61.20
2022-10-11T17:36:34.721Z,61.30
2022-10-11T17:39:08.057Z,61.50
2022-10-11T17:41:38.425Z,61.50
2022-10-11T17:44:10.551Z,61.50
2022-10-11T17:46:41.567Z,61.50
2022-10-11T17:49:09.012Z,61.60
2022-10-11T17:51:58.216Z,61.60
2022-10-11T17:57:27.426Z,61.80
2022-10-11T18:00:11.473Z,61.90
2022-10-11T18:02:44.599Z,61.90
2022-10-11T18:05:17.824Z,62.00
2022-10-11T18:08:06.167Z,62.00
2022-10-11T18:10:47.697Z,62.20
2022-10-11T18:16:24.690Z,62.20
2022-10-11T18:19:00.110Z,62.20
2022-10-11T18:21:34.272Z,62.30
2022-10-11T18:31:48.886Z,62.70
2022-10-11T18:34:28.121Z,62.70
2022-10-11T18:37:20.340Z,62.80
2022-10-11T18:39:48.855Z,62.90
2022-10-11T18:42:25.944Z,62.90
2022-10-11T18:45:00.903Z,63.00
2022-10-11T18:47:31.917Z,63.30
2022-10-11T18:50:06.377Z,63.30
2022-10-11T18:52:44.358Z,63.40
2022-10-11T18:55:26.788Z,63.70
2022-10-11T18:58:04.292Z,63.70
2022-10-11T19:00:40.514Z,63.70
2022-10-11T19:03:11.549Z,63.80
2022-10-11T19:05:50.733Z,63.80
2022-10-11T19:08:27.813Z,63.90
2022-10-11T19:13:48.840Z,63.90
2022-10-11T19:16:49.460Z,63.90
2022-10-11T19:19:32.942Z,64.00
2022-10-11T19:22:10.666Z,64.00
2022-10-11T19:27:48.077Z,63.90
2022-10-11T19:30:17.344Z,64.10
2022-10-11T19:36:20.156Z,64.10
2022-10-11T19:38:49.692Z,64.30
2022-10-11T19:41:20.576Z,64.10
2022-10-11T19:43:58.197Z,64.10
2022-10-11T19:49:26.016Z,64.00
2022-10-11T19:54:55.782Z,64.00
2022-10-11T19:57:49.765Z,64.00
2022-10-11T20:00:17.137Z,64.00
2022-10-11T20:02:49.366Z,64.00
2022-10-11T20:05:16.383Z,64.00
2022-10-11T20:07:46.270Z,64.10
2022-10-11T20:10:13.112Z,64.20
2022-10-11T20:12:45.730Z,64.20
2022-10-11T20:15:12.874Z,64.20
2022-10-11T20:17:48.894Z,64.30
2022-10-11T20:20:17.717Z,64.40
2022-10-11T20:22:49.389Z,64.40
2022-10-11T20:25:16.395Z,64.50
2022-10-11T20:27:47.877Z,64.60
2022-10-11T20:30:14.795Z,64.60
2022-10-11T20:32:44.019Z,64.80
2022-10-11T20:35:10.907Z,64.70
2022-10-11T20:37:42.334Z,64.60
2022-10-11T20:40:10.024Z,64.70
2022-10-11T20:42:39.962Z,65.00
2022-10-11T20:45:07.679Z,64.80
2022-10-11T20:47:34.946Z,64.80
2022-10-11T20:50:02.098Z,64.90
2022-10-11T20:52:31.418Z,65.00
2022-10-11T20:55:01.425Z,65.00
2022-10-11T20:57:28.282Z,65.00
2022-10-11T20:59:56.355Z,65.00
2022-10-11T21:02:23.282Z,65.10
2022-10-11T21:04:55.094Z,65.10
2022-10-11T21:07:24.049Z,65.10
2022-10-11T21:09:51.205Z,65.10
2022-10-11T21:12:20.176Z,65.10
2022-10-11T21:14:49.602Z,65.10
2022-10-11T21:17:19.189Z,65.10
2022-10-11T21:19:50.752Z,65.10
2022-10-11T21:22:17.636Z,65.20
2022-10-11T21:24:44.502Z,65.40
2022-10-11T21:27:13.867Z,65.30
2022-10-11T21:29:40.676Z,65.20
2022-10-11T21:32:14.134Z,65.20
2022-10-11T21:34:41.298Z,65.20
2022-10-11T21:37:10.546Z,65.30
2022-10-11T21:39:37.406Z,65.20
2022-10-11T21:42:04.278Z,65.10
2022-10-11T21:44:32.792Z,65.10
2022-10-11T21:47:07.202Z,65.10
2022-10-11T21:49:34.575Z,65.10
2022-10-11T21:52:01.570Z,65.10
2022-10-11T21:54:28.455Z,65.10
2022-10-11T21:57:00.032Z,65.00
2022-10-11T21:59:26.860Z,65.00
2022-10-11T22:02:01.510Z,65.20
2022-10-11T22:04:30.943Z,65.00
2022-10-11T22:07:00.523Z,65.00
2022-10-11T22:09:29.657Z,65.10
2022-10-11T22:11:59.458Z,65.10
2022-10-11T22:14:26.770Z,65.10
2022-10-11T22:16:53.669Z,65.10
2022-10-11T22:19:20.620Z,65.10
2022-10-11T22:21:47.488Z,65.10
2022-10-11T22:24:18.846Z,65.90
2022-10-11T22:26:48.277Z,65.60
2022-10-11T22:29:17.424Z,65.20
2022-10-11T22:31:44.284Z,65.30
2022-10-11T22:34:11.256Z,65.30
2022-10-11T22:36:41.225Z,65.40
2022-10-11T22:39:09.769Z,65.40
2022-10-11T22:41:37.228Z,65.40
2022-10-11T22:44:07.189Z,65.50
2022-10-11T22:46:34.151Z,65.50
2022-10-11T22:49:00.996Z,65.60
2022-10-11T22:51:27.791Z,65.60
2022-10-11T22:53:54.696Z,65.60
2022-10-11T22:56:24.005Z,65.70
2022-10-11T22:58:50.861Z,65.80
2022-10-11T23:01:17.781Z,65.90
2022-10-11T23:03:53.925Z,66.00
2022-10-11T23:06:20.887Z,66.10
2022-10-11T23:08:47.803Z,66.00
2022-10-11T23:11:18.102Z,66.00
2022-10-11T23:13:44.945Z,66.00
2022-10-11T23:16:15.842Z,66.00
2022-10-11T23:18:42.993Z,66.00
2022-10-11T23:21:10.123Z,66.20
2022-10-11T23:23:37.097Z,66.30
2022-10-11T23:26:10.382Z,66.20
2022-10-11T23:28:37.877Z,66.20
2022-10-11T23:31:16.328Z,66.30
2022-10-11T23:33:45.048Z,66.40
2022-10-11T23:36:16.053Z,66.30
2022-10-11T23:38:43.435Z,66.50
2022-10-11T23:41:10.521Z,66.40
2022-10-11T23:43:37.941Z,66.50
2022-10-11T23:46:07.358Z,66.50
2022-10-11T23:48:34.214Z,66.50
2022-10-11T23:51:01.061Z,66.50
2022-10-11T23:53:28.018Z,66.60
2022-10-11T23:55:54.880Z,66.60
2022-10-11T23:58:24.414Z,66.50
